WordPress database error: []
INSERT INTO `taf` (`ID`, `ICAO`, `datetime`, `reading`, `dayfrom`, `hourfrom`, `dayto`, `hourto`, `direction`, `direction_varmin`, `direction_varmax`, `windspeed`, `windspeed_gusts`, `created`) VALUES (NULL, 'EDDF', '2018-02-20 11:00:00', 'EDDF 201100Z 2012/2118 03007KT 9999 FEW025 TEMPO 2012/2106 BKN030', '20', '12', '21', '18', '30', '', '', '7', '', '2018-02-20 15:09:56')

TAF RAW:EDDF 201100Z 2012/2118 03007KT 9999 FEW025 TEMPO 2012/2106 BKN030
-----------------------------------------------------------------------------------------------------------------------------------------------------------------------------
'datetime':2018-02-20 11:00:00
'ICAO':EDDF
'reading':
'dayfrom':20
'hourfrom':12
'dayto':21
'hourto':18
'direction':30
'direction_varmin':
'direction_varmax':
'windspeed':7
'windspeed_gusts':
'created':2018-02-20 15:09:56